sensor_id;sensor_type;location;lat;lon;timestamp;pressure;altitude;pressure_sealevel;temperature;humidity
68965;BME280;56017;48.680;8.998;2022-11-20T00:09:10;96190;;;5.9;85.5
68965;BME280;56017;48.680;8.998;2022-11-20T00:11:35;96190;;;5.8;85.5
68965;BME280;56017;48.680;8.998;2022-11-20T00:14:13;96180;;;5.9;85.5
68965;BME280;56017;48.680;8.998;2022-11-20T00:16:44;96180;;;5.9;85.5
68965;BME280;56017;48.680;8.998;2022-11-20T00:19:14;96190;;;5.9;85.5
68965;BME280;56017;48.680;8.998;2022-11-20T00:21:39;96190;;;6;86
68965;BME280;56017;48.680;8.998;2022-11-20T00:24:16;96190;;;6;85.5
68965;BME280;56017;48.680;8.998;2022-11-20T00:26:41;96190;;;6;85.5
68965;BME280;56017;48.680;8.998;2022-11-20T00:31:50;96180;;;6;86
68965;BME280;56017;48.680;8.998;2022-11-20T00:34:20;96180;;;6;86
68965;BME280;56017;48.680;8.998;2022-11-20T00:36:46;96190;;;6;86
68965;BME280;56017;48.680;8.998;2022-11-20T00:39:22;96190;;;6.1;86.5
68965;BME280;56017;48.680;8.998;2022-11-20T00:41:47;96190;;;6.1;86.5
68965;BME280;56017;48.680;8.998;2022-11-20T00:46:55;96190;;;6.1;86.5
68965;BME280;56017;48.680;8.998;2022-11-20T00:51:51;96190;;;6.2;87
68965;BME280;56017;48.680;8.998;2022-11-20T00:56:53;96190;;;6.1;87
68965;BME280;56017;48.680;8.998;2022-11-20T01:01:55;96190;;;6.1;86.5
68965;BME280;56017;48.680;8.998;2022-11-20T01:04:25;96190;;;6.1;86.5
68965;BME280;56017;48.680;8.998;2022-11-20T01:06:56;96200;;;6;86.5
68965;BME280;56017;48.680;8.998;2022-11-20T01:11:58;96200;;;5.9;86.5
68965;BME280;56017;48.680;8.998;2022-11-20T01:17:00;96200;;;5.7;86.5
68965;BME280;56017;48.680;8.998;2022-11-20T01:19:31;96200;;;5.7;86.5
68965;BME280;56017;48.680;8.998;2022-11-20T01:22:04;96200;;;5.7;86.5
68965;BME280;56017;48.680;8.998;2022-11-20T01:24:40;96210;;;5.7;86.5
68965;BME280;56017;48.680;8.998;2022-11-20T01:27:11;96200;;;5.7;86
68965;BME280;56017;48.680;8.998;2022-11-20T01:29:35;96210;;;5.6;86
68965;BME280;56017;48.680;8.998;2022-11-20T01:32:06;96220;;;5.6;86
68965;BME280;56017;48.680;8.998;2022-11-20T01:34:44;96210;;;5.5;86
68965;BME280;56017;48.680;8.998;2022-11-20T01:37:08;96210;;;5.5;86
68965;BME280;56017;48.680;8.998;2022-11-20T01:42:10;96210;;;5.5;86
68965;BME280;56017;48.680;8.998;2022-11-20T01:47:13;96200;;;5.4;86
68965;BME280;56017;48.680;8.998;2022-11-20T01:52:16;96210;;;5.4;86
68965;BME280;56017;48.680;8.998;2022-11-20T01:55:00;96210;;;5.5;86
68965;BME280;56017;48.680;8.998;2022-11-20T01:59:49;96200;;;5.4;86
68965;BME280;56017;48.680;8.998;2022-11-20T02:02:25;96200;;;5.4;86
68965;BME280;56017;48.680;8.998;2022-11-20T02:07:20;96200;;;5.4;86.5
68965;BME280;56017;48.680;8.998;2022-11-20T02:09:58;96200;;;5.4;86.5
68965;BME280;56017;48.680;8.998;2022-11-20T02:12:29;96200;;;5.4;86.5
68965;BME280;56017;48.680;8.998;2022-11-20T02:14:53;96190;;;5.5;87
68965;BME280;56017;48.680;8.998;2022-11-20T02:17:30;96200;;;5.5;87
68965;BME280;56017;48.680;8.998;2022-11-20T02:20:02;96190;;;5.5;87
68965;BME280;56017;48.680;8.998;2022-11-20T02:22:28;96190;;;5.6;87
68965;BME280;56017;48.680;8.998;2022-11-20T02:25:03;96190;;;5.6;87
68965;BME280;56017;48.680;8.998;2022-11-20T02:27:28;96190;;;5.7;87
68965;BME280;56017;48.680;8.998;2022-11-20T02:30:06;96190;;;5.8;87
68965;BME280;56017;48.680;8.998;2022-11-20T02:32:36;96190;;;5.8;87
68965;BME280;56017;48.680;8.998;2022-11-20T02:37:32;96180;;;5.8;87
68965;BME280;56017;48.680;8.998;2022-11-20T02:40:03;96180;;;5.8;87
68965;BME280;56017;48.680;8.998;2022-11-20T02:42:34;96180;;;5.8;87.5
68965;BME280;56017;48.680;8.998;2022-11-20T02:45:05;96190;;;5.8;87.5
68965;BME280;56017;48.680;8.998;2022-11-20T02:47:42;96190;;;5.8;87.5
68965;BME280;56017;48.680;8.998;2022-11-20T02:50:13;96200;;;5.8;87.5
68965;BME280;56017;48.680;8.998;2022-11-20T02:57:46;96200;;;5.7;87
68965;BME280;56017;48.680;8.998;2022-11-20T03:02:41;96210;;;5.7;87
68965;BME280;56017;48.680;8.998;2022-11-20T03:12:52;96210;;;5.5;87
68965;BME280;56017;48.680;8.998;2022-11-20T03:15:16;96210;;;5.4;87
68965;BME280;56017;48.680;8.998;2022-11-20T03:20:19;96210;;;5.4;86.5
68965;BME280;56017;48.680;8.998;2022-11-20T03:22:56;96200;;;5.3;86.5
68965;BME280;56017;48.680;8.998;2022-11-20T03:27:58;96200;;;5.3;86
68965;BME280;56017;48.680;8.998;2022-11-20T03:33:00;96200;;;5.1;85.5
68965;BME280;56017;48.680;8.998;2022-11-20T03:45:28;96180;;;5;85.5
68965;BME280;56017;48.680;8.998;2022-11-20T03:48:05;96190;;;4.9;85
68965;BME280;56017;48.680;8.998;2022-11-20T03:53:07;96190;;;4.9;85
68965;BME280;56017;48.680;8.998;2022-11-20T03:58:10;96190;;;5;85
68965;BME280;56017;48.680;8.998;2022-11-20T04:03:05;96200;;;5.1;85.5
68965;BME280;56017;48.680;8.998;2022-11-20T04:08:13;96190;;;5.2;86
68965;BME280;56017;48.680;8.998;2022-11-20T04:13:09;96190;;;5.3;86
68965;BME280;56017;48.680;8.998;2022-11-20T04:15:47;96190;;;5.4;86
68965;BME280;56017;48.680;8.998;2022-11-20T04:20:42;96190;;;5.5;86.5
68965;BME280;56017;48.680;8.998;2022-11-20T04:25:44;96180;;;5.8;87
68965;BME280;56017;48.680;8.998;2022-11-20T04:28:21;96180;;;5.9;87
68965;BME280;56017;48.680;8.998;2022-11-20T04:33:23;96170;;;5.9;86.5
68965;BME280;56017;48.680;8.998;2022-11-20T04:35:48;96180;;;5.8;86.5
68965;BME280;56017;48.680;8.998;2022-11-20T04:38:25;96180;;;5.8;86.5
68965;BME280;56017;48.680;8.998;2022-11-20T04:40:50;96180;;;5.8;87
68965;BME280;56017;48.680;8.998;2022-11-20T04:43:21;96180;;;5.8;87
68965;BME280;56017;48.680;8.998;2022-11-20T04:45:59;96170;;;5.8;87
68965;BME280;56017;48.680;8.998;2022-11-20T04:53:25;96180;;;6;87.5
68965;BME280;56017;48.680;8.998;2022-11-20T04:58:27;96180;;;6.1;87.5
68965;BME280;56017;48.680;8.998;2022-11-20T05:01:00;96180;;;6.2;87
68965;BME280;56017;48.680;8.998;2022-11-20T05:03:35;96180;;;6.2;87.5
68965;BME280;56017;48.680;8.998;2022-11-20T05:06:00;96180;;;6.2;87.5
68965;BME280;56017;48.680;8.998;2022-11-20T05:08:31;96170;;;6.3;87.5
68965;BME280;56017;48.680;8.998;2022-11-20T05:13:59;96170;;;6.4;87
68965;BME280;56017;48.680;8.998;2022-11-20T05:18:35;96170;;;6.4;87
68965;BME280;56017;48.680;8.998;2022-11-20T05:23:43;96170;;;6.5;87
68965;BME280;56017;48.680;8.998;2022-11-20T05:28:45;96170;;;6.5;87
68965;BME280;56017;48.680;8.998;2022-11-20T05:31:11;96170;;;6.4;87
68965;BME280;56017;48.680;8.998;2022-11-20T05:33:41;96180;;;6.5;87
68965;BME280;56017;48.680;8.998;2022-11-20T05:36:12;96170;;;6.5;87
68965;BME280;56017;48.680;8.998;2022-11-20T05:38:43;96170;;;6.5;87
68965;BME280;56017;48.680;8.998;2022-11-20T05:41:14;96160;;;6.5;87
68965;BME280;56017;48.680;8.998;2022-11-20T05:43:51;96170;;;6.4;87
68965;BME280;56017;48.680;8.998;2022-11-20T05:46:17;96170;;;6.4;87.5
68965;BME280;56017;48.680;8.998;2022-11-20T05:48:46;96180;;;6.5;87
68965;BME280;56017;48.680;8.998;2022-11-20T05:53:48;96170;;;6.4;87
68965;BME280;56017;48.680;8.998;2022-11-20T05:58:51;96170;;;6.4;87
68965;BME280;56017;48.680;8.998;2022-11-20T06:03:53;96180;;;6.4;87.5
68965;BME280;56017;48.680;8.998;2022-11-20T06:09:00;96180;;;6.5;87.5
68965;BME280;56017;48.680;8.998;2022-11-20T06:14:02;96180;;;6.5;87.5
68965;BME280;56017;48.680;8.998;2022-11-20T06:16:34;96170;;;6.4;87.5
68965;BME280;56017;48.680;8.998;2022-11-20T06:18:58;96170;;;6.4;87.5
68965;BME280;56017;48.680;8.998;2022-11-20T06:21:29;96170;;;6.4;87.5
68965;BME280;56017;48.680;8.998;2022-11-20T06:24:00;96170;;;6.5;87.5
68965;BME280;56017;48.680;8.998;2022-11-20T06:26:31;96170;;;6.5;87.5
68965;BME280;56017;48.680;8.998;2022-11-20T06:29:02;96170;;;6.5;87.5
68965;BME280;56017;48.680;8.998;2022-11-20T06:34:10;96170;;;6.5;87.5
68965;BME280;56017;48.680;8.998;2022-11-20T06:36:35;96170;;;6.5;87.5
68965;BME280;56017;48.680;8.998;2022-11-20T06:44:08;96170;;;6.5;87
68965;BME280;56017;48.680;8.998;2022-11-20T06:49:10;96170;;;6.5;87.5
68965;BME280;56017;48.680;8.998;2022-11-20T06:54:12;96180;;;6.5;87.5
68965;BME280;56017;48.680;8.998;2022-11-20T06:56:42;96180;;;6.6;87.5
68965;BME280;56017;48.680;8.998;2022-11-20T06:59:13;96180;;;6.6;87.5
68965;BME280;56017;48.680;8.998;2022-11-20T07:01:44;96180;;;6.6;87.5
68965;BME280;56017;48.680;8.998;2022-11-20T07:04:23;96190;;;6.7;87.5
68965;BME280;56017;48.680;8.998;2022-11-20T07:09:17;96200;;;6.7;87.5
68965;BME280;56017;48.680;8.998;2022-11-20T07:11:48;96200;;;6.7;87.5
68965;BME280;56017;48.680;8.998;2022-11-20T07:14:19;96190;;;6.8;87.5
68965;BME280;56017;48.680;8.998;2022-11-20T07:16:58;96200;;;6.8;87.5
68965;BME280;56017;48.680;8.998;2022-11-20T07:19:21;96200;;;6.7;87.5
68965;BME280;56017;48.680;8.998;2022-11-20T07:21:59;96190;;;6.7;87.5
68965;BME280;56017;48.680;8.998;2022-11-20T07:24:23;96190;;;6.7;87.5
68965;BME280;56017;48.680;8.998;2022-11-20T07:26:54;96190;;;6.7;87.5
68965;BME280;56017;48.680;8.998;2022-11-20T07:29:34;96190;;;6.7;87.5
68965;BME280;56017;48.680;8.998;2022-11-20T07:34:33;96200;;;6.8;88
68965;BME280;56017;48.680;8.998;2022-11-20T07:36:58;96200;;;6.9;88
68965;BME280;56017;48.680;8.998;2022-11-20T07:39:29;96200;;;6.9;88
68965;BME280;56017;48.680;8.998;2022-11-20T07:44:31;96200;;;7;87.5
68965;BME280;56017;48.680;8.998;2022-11-20T07:47:02;96200;;;7.1;88
68965;BME280;56017;48.680;8.998;2022-11-20T07:49:33;96200;;;7.1;88
68965;BME280;56017;48.680;8.998;2022-11-20T07:52:10;96190;;;7.1;88
68965;BME280;56017;48.680;8.998;2022-11-20T07:54:35;96190;;;7.3;88
68965;BME280;56017;48.680;8.998;2022-11-20T07:57:06;96200;;;7.3;87.5
68965;BME280;56017;48.680;8.998;2022-11-20T07:59:37;96210;;;7.4;87.5
68965;BME280;56017;48.680;8.998;2022-11-20T08:02:10;96210;;;7.4;87.5
68965;BME280;56017;48.680;8.998;2022-11-20T08:04:39;96220;;;7.4;88
68965;BME280;56017;48.680;8.998;2022-11-20T08:07:10;96210;;;7.4;88
68965;BME280;56017;48.680;8.998;2022-11-20T08:09:41;96220;;;7.4;88
68965;BME280;56017;48.680;8.998;2022-11-20T08:12:16;96220;;;7.4;88
68965;BME280;56017;48.680;8.998;2022-11-20T08:14:43;96230;;;7.4;87.5
68965;BME280;56017;48.680;8.998;2022-11-20T08:17:21;96220;;;7.3;88
68965;BME280;56017;48.680;8.998;2022-11-20T08:19:45;96230;;;7.3;88
68965;BME280;56017;48.680;8.998;2022-11-20T08:22:16;96230;;;7.2;88
68965;BME280;56017;48.680;8.998;2022-11-20T08:24:46;96230;;;7.2;88
68965;BME280;56017;48.680;8.998;2022-11-20T08:29:49;96240;;;7.4;88
68965;BME280;56017;48.680;8.998;2022-11-20T08:37:28;96230;;;7.6;88
68965;BME280;56017;48.680;8.998;2022-11-20T08:39:52;96240;;;7.7;88
68965;BME280;56017;48.680;8.998;2022-11-20T08:44:54;96250;;;7.9;87.5
68965;BME280;56017;48.680;8.998;2022-11-20T08:47:32;96250;;;7.9;87.5
68965;BME280;56017;48.680;8.998;2022-11-20T08:49:56;96250;;;7.9;87.5
68965;BME280;56017;48.680;8.998;2022-11-20T08:54:58;96240;;;7.9;87.5
68965;BME280;56017;48.680;8.998;2022-11-20T08:57:36;96240;;;8;87.5
68965;BME280;56017;48.680;8.998;2022-11-20T09:02:31;96260;;;8;88
68965;BME280;56017;48.680;8.998;2022-11-20T09:05:02;96250;;;8;87.5
68965;BME280;56017;48.680;8.998;2022-11-20T09:07:33;96250;;;8;87.5
68965;BME280;56017;48.680;8.998;2022-11-20T09:10:04;96250;;;8;88
68965;BME280;56017;48.680;8.998;2022-11-20T09:12:35;96250;;;8;88
68965;BME280;56017;48.680;8.998;2022-11-20T09:15:06;96250;;;8.1;88
68965;BME280;56017;48.680;8.998;2022-11-20T09:17:37;96260;;;8.1;88
68965;BME280;56017;48.680;8.998;2022-11-20T09:20:09;96260;;;8.1;87.5
68965;BME280;56017;48.680;8.998;2022-11-20T09:22:39;96270;;;8;87.5
68965;BME280;56017;48.680;8.998;2022-11-20T09:25:10;96270;;;8;88
68965;BME280;56017;48.680;8.998;2022-11-20T09:27:54;96270;;;7.9;87.5
68965;BME280;56017;48.680;8.998;2022-11-20T09:30:13;96270;;;7.9;88
68965;BME280;56017;48.680;8.998;2022-11-20T09:32:43;96270;;;7.9;88
68965;BME280;56017;48.680;8.998;2022-11-20T09:35:14;96270;;;7.9;88
68965;BME280;56017;48.680;8.998;2022-11-20T09:37:45;96280;;;7.8;88
68965;BME280;56017;48.680;8.998;2022-11-20T09:40:20;96280;;;7.8;88
68965;BME280;56017;48.680;8.998;2022-11-20T09:47:54;96280;;;7.8;88
68965;BME280;56017;48.680;8.998;2022-11-20T09:50:23;96270;;;7.7;88
68965;BME280;56017;48.680;8.998;2022-11-20T09:55:22;96280;;;7.6;88
68965;BME280;56017;48.680;8.998;2022-11-20T09:57:53;96280;;;7.6;88
68965;BME280;56017;48.680;8.998;2022-11-20T10:00:24;96280;;;7.7;88.5
68965;BME280;56017;48.680;8.998;2022-11-20T10:02:55;96270;;;7.8;88.5
68965;BME280;56017;48.680;8.998;2022-11-20T10:08:11;96280;;;7.9;87.5
68965;BME280;56017;48.680;8.998;2022-11-20T10:13:03;96280;;;7.8;88
68965;BME280;56017;48.680;8.998;2022-11-20T10:15:33;96280;;;7.7;88
68965;BME280;56017;48.680;8.998;2022-11-20T10:20:39;96290;;;7.8;88
68965;BME280;56017;48.680;8.998;2022-11-20T10:23:09;96280;;;7.7;88
68965;BME280;56017;48.680;8.998;2022-11-20T10:26:41;96280;;;7.5;88
68965;BME280;56017;48.680;8.998;2022-11-20T10:28:15;96280;;;7.4;88
68965;BME280;56017;48.680;8.998;2022-11-20T10:33:17;96270;;;7.3;88
68965;BME280;56017;48.680;8.998;2022-11-20T10:35:40;96280;;;7.2;88
68965;BME280;56017;48.680;8.998;2022-11-20T10:38:18;96280;;;7.3;88.5
68965;BME280;56017;48.680;8.998;2022-11-20T10:40:48;96280;;;7.2;88
68965;BME280;56017;48.680;8.998;2022-11-20T10:43:16;96280;;;7.3;88
68965;BME280;56017;48.680;8.998;2022-11-20T10:45:47;96280;;;7.3;88.5
68965;BME280;56017;48.680;8.998;2022-11-20T10:48:28;96280;;;7.4;88
68965;BME280;56017;48.680;8.998;2022-11-20T10:50:47;96270;;;7.4;88
68965;BME280;56017;48.680;8.998;2022-11-20T10:53:31;96270;;;7.5;88.5
68965;BME280;56017;48.680;8.998;2022-11-20T10:58:28;96260;;;8;88
68965;BME280;56017;48.680;8.998;2022-11-20T11:00:48;96260;;;8.2;88.5
68965;BME280;56017;48.680;8.998;2022-11-20T11:03:27;96260;;;8.5;87.5
68965;BME280;56017;48.680;8.998;2022-11-20T11:05:59;96260;;;8.5;87.5
68965;BME280;56017;48.680;8.998;2022-11-20T11:08:20;96260;;;8.5;87.5
68965;BME280;56017;48.680;8.998;2022-11-20T11:10:52;96260;;;8.4;87.5
68965;BME280;56017;48.680;8.998;2022-11-20T11:13:29;96260;;;8.4;87.5
68965;BME280;56017;48.680;8.998;2022-11-20T11:20:55;96240;;;8.7;88
68965;BME280;56017;48.680;8.998;2022-11-20T11:33:37;96220;;;9.5;87.5
68965;BME280;56017;48.680;8.998;2022-11-20T11:36:02;96220;;;9.9;87.5
68965;BME280;56017;48.680;8.998;2022-11-20T11:38:36;96220;;;9.8;86.5
68965;BME280;56017;48.680;8.998;2022-11-20T11:41:03;96220;;;10.1;87
68965;BME280;56017;48.680;8.998;2022-11-20T11:43:35;96210;;;10.5;87
68965;BME280;56017;48.680;8.998;2022-11-20T11:46:15;96200;;;10.7;87
68965;BME280;56017;48.680;8.998;2022-11-20T11:51:15;96200;;;10.4;86.5
68965;BME280;56017;48.680;8.998;2022-11-20T11:53:38;96190;;;10.4;87
